Tiempo atmosférico en la estación meteorológica de Valverde, Santa Cruz de Tenerife (1070 m.)



Fecha
DESCASC
Temp. máxima en grados centígrados (hora)
DESCASC
Temp. mínima en grados centígrados (hora)
DESCASC
Temp. media en grados centígrados
DESCASC
Racha de viento máxima en m/sg (hora)
DESCASC
Velocidad máxima media en intervalos de 10 minutos(hora)
DESCASC
Precipitaciones diarias en mm
DESCASC
Precipitaciones de 00:00 a 06:00 en mm
DESCASC
Precipitaciones de 06:00 a 12:00 en mm
DESCASC
Precipitaciones de 12:00 a 18:00 en mm
DESCASC
Precipitaciones de 18:00 a 24:00 en mm
DESCASC
23-06-2019 21.2 (13:00) 12.8 (04:40) 17 11.11 (04:00) 8.33 (00:10) 0 0 0 0 0
22-06-2019 19.8 (14:00) 10.9 (06:30) 15.3 10.28 (20:30) 8.06 (20:30) 0 0 0 0 0
21-06-2019 18 (15:20) 10.5 (06:30) 14.3 11.11 (09:30) 7.78 (00:10) 0 0 0 0 0
20-06-2019 18.6 (14:50) 11.9 (00:00) 15.3 11.11 (00:40) 7.78 (06:30) 0 0 0 0 0
19-06-2019 18.6 (14:10) 10.5 (00:00) 14.6 9.17 (21:40) 7.22 (21:40) 0 0 0 0 0
18-06-2019 20.1 (15:10) 12.1 (00:00) 16.1 9.72 (01:20) 6.39 (20:00) 0.8 0 0.8 0 0
17-06-2019 19.9 (15:00) 11.1 (00:00) 15.5 11.67 (16:20) 8.61 (17:40) 0 0 0 0 0
16-06-2019 19.2 (13:50) 7 (00:00) 13.1 6.67 (08:40) 5.28 (08:40) 0 0 0 0 0
15-06-2019 16.6 (15:10) 7.2 (00:00) 11.9 8.33 (14:50) 5 (19:40) 0.2 0.2 0 0 0
14-06-2019 15.2 (17:00) 6.6 (00:00) 10.9 6.67 (17:00) 4.17 (12:50) 0 0 0 0 0
13-06-2019 15.5 (15:50) 10 (00:00) 12.8 10.28 (00:30) 6.39 (05:40) 0.2 0.2 0 0 0
12-06-2019 14.1 (13:00) 11.5 (00:00) 12.8 11.67 (21:30) 8.61 (21:30) 4.2 1.6 2.2 0.2 0.2
11-06-2019 14.1 (15:00) 9.9 (00:00) 12 15 (19:50) 10.83 (19:50) 0.4 0 0 0.2 0.2
10-06-2019 15.2 (14:20) 10.2 (00:00) 12.7 13.06 (18:00) 9.72 (18:00) 0.2 0 0.2 0 0
09-06-2019 15 (16:00) 9.6 (00:00) 12.3 11.67 (17:10) 8.33 (17:10) 0 0 0 0 0
08-06-2019 16.3 (13:40) 10 (00:00) 13.1 12.78 (23:30) 8.61 (18:50) 1 0.2 0.8 0 0
07-06-2019 16.2 (17:00) 9.7 (00:00) 13 12.78 (03:50) 8.33 (01:20) 0.2 0 0.2 0 0
06-06-2019 15.3 (15:30) 10 (00:00) 12.7 12.22 (23:30) 8.33 (23:00) 0 0 0 0 0
05-06-2019 15.6 (13:30) 11.3 (00:00) 13.5 12.22 (04:50) 8.06 (02:50) 0 0 0 0 0
04-06-2019 23.4 (12:40) 12.4 (00:00) 17.9 11.39 (00:50) 7.22 (22:30) 0 0 0 0 0
03-06-2019 26.4 (15:30) 16.6 (00:00) 21.5 11.67 (19:30) 6.67 (19:20) 0 0 0 0 0
02-06-2019 27.8 (16:40) 14.9 (00:00) 21.3 11.11 (23:40) 6.67 (23:40) 0 0 0 0 0
01-06-2019 27.3 (10:50) 15.4 (00:00) 21.3 8.33 (05:10) 5.28 (05:00) 0 0 0 0 0
31-05-2019 26.5 (14:20) 11.5 (00:00) 19 6.39 (16:40) 3.89 (16:30) 0 0 0 0 0
30-05-2019 24.4 (14:40) 9.3 (00:00) 16.8 6.11 (15:10) 4.44 (13:00) 0 0 0 0 0
29-05-2019 24.6 (14:10) 10.6 (00:00) 17.6 5.56 (17:50) 4.17 (22:10) 0 0 0 0 0
28-05-2019 23.8 (14:20) 9.6 (00:00) 16.7 8.33 (00:10) 4.72 (21:50) 0 0 0 0 0
27-05-2019 21.4 (13:40) 10.5 (00:00) 15.9 10.28 (09:40) 6.67 (09:40) 0 0 0 0 0
26-05-2019 19.6 (15:50) 8.9 (00:00) 14.3 11.11 (00:50) 8.06 (00:50) 0 0 0 0 0

Gráficas

Temp. máximas Temp. mínimas Temp. medias Precipitaciones Rachas de viento máximas Velocidades máximas media en intervalos de 10 minutos

Datos horarios

Fecha y hora oficial Temperatura (ºC) Velocidad del viento (km/h) Dirección del viento Racha (km/h) Dirección de racha Precipitación (mm) Presión (hPa) Tendencia (hPa) Humedad (%)
2019-06-24 23:00:00 -- -- -- -- -- -- -- -- --
2019-06-24 22:00:00 16.8 17 Oeste 36 Oeste 0 -- -- 100
2019-06-24 21:00:00 16.8 22 Oeste 33 Oeste 0 -- -- 100
2019-06-24 20:00:00 17 20 Oeste 30 Oeste 0 -- -- 99
2019-06-24 19:00:00 17.8 11 Oeste 27 Oeste 0 -- -- 95
2019-06-24 18:00:00 20.6 17 Oeste 26 Oeste 0 -- -- 77
2019-06-24 17:00:00 21.4 17 Oeste 24 Noroeste 0 -- -- 72
2019-06-24 16:00:00 22.4 14 Oeste 24 Oeste 0 -- -- 63
2019-06-24 15:00:00 23.2 15 Oeste 23 Oeste 0 -- -- 55
2019-06-24 14:00:00 23.2 15 Oeste 26 Oeste 0 -- -- 42
2019-06-24 13:00:00 23.4 8 Oeste 18 Oeste 0 -- -- 40
2019-06-24 12:00:00 21.4 5 Este 14 Este 0 -- -- 77
2019-06-24 11:00:00 20.8 6 Nordeste 16 Este 0 -- -- 79
2019-06-24 10:00:00 20.7 9 Este 15 Este 0 -- -- 75
2019-06-24 09:00:00 20.6 5 Este 9 Este 0 -- -- 71
2019-06-24 08:00:00 17.6 5 Sudoeste 15 Oeste 0 -- -- 73
2019-06-24 07:00:00 14.5 15 Oeste 25 Oeste 0 -- -- 82
2019-06-24 06:00:00 15.3 18 Oeste 22 Oeste 0 -- -- 82
2019-06-24 05:00:00 15.6 18 Oeste 23 Oeste 0 -- -- 81
2019-06-24 04:00:00 15.3 15 Oeste 25 Oeste 0 -- -- 75
2019-06-24 03:00:00 15.5 20 Oeste 27 Oeste 0 -- -- 55
2019-06-24 02:00:00 15.4 19 Oeste 32 Oeste 0 -- -- 59
2019-06-24 01:00:00 14.8 19 Oeste 28 Oeste 0 -- -- 65
2019-06-24 00:00:00 13.9 22 Oeste 27 Oeste 0 -- -- 94
2019-06-23 23:00:00 14.3 19 Oeste 35 Oeste 0 -- -- 100
2019-06-23 22:00:00 15 25 Oeste 37 Oeste 0 -- -- 100
2019-06-23 21:00:00 15.3 20 Oeste 31 Oeste 0 -- -- 100
2019-06-23 20:00:00 16 21 Oeste 34 Oeste 0 -- -- 100
2019-06-23 19:00:00 16.5 21 Oeste 34 Oeste 0 -- -- 99
2019-06-23 18:00:00 18.1 21 Oeste 34 Noroeste 0 -- -- 87
2019-06-23 17:00:00 18 21 Oeste 31 Oeste 0 -- -- 86
2019-06-23 16:00:00 19 19 Oeste 30 Oeste 0 -- -- 80
2019-06-23 15:00:00 19 14 Oeste 22 Oeste 0 -- -- 83
2019-06-23 14:00:00 21.2 8 Noroeste 25 Oeste 0 -- -- 70
2019-06-23 13:00:00 21.2 7 Oeste 20 Oeste 0 -- -- 70
2019-06-23 12:00:00 19.1 9 Oeste 20 Oeste 0 -- -- 72
2019-06-23 11:00:00 18.4 15 Noroeste 23 Noroeste 0 -- -- 70
2019-06-23 10:00:00 16.7 16 Noroeste 31 Noroeste 0 -- -- 83
2019-06-23 09:00:00 15.5 23 Noroeste 31 Noroeste 0 -- -- 88
2019-06-23 08:00:00 14.3 19 Noroeste 30 Oeste 0 -- -- 98
2019-06-23 07:00:00 13.7 22 Noroeste 35 Oeste 0 -- -- 99
2019-06-23 06:00:00 13.3 23 Noroeste 37 Oeste 0 -- -- 100
2019-06-23 05:00:00 13.2 27 Oeste 38 Oeste 0 -- -- 100
2019-06-23 04:00:00 13.5 28 Oeste 40 Oeste 0 -- -- 99
2019-06-23 03:00:00 13.3 30 Noroeste 39 Oeste 0 -- -- 99
2019-06-23 02:00:00 13 23 Oeste 36 Oeste 0 -- -- 97
2019-06-23 01:00:00 13 23 Noroeste 40 Oeste 0 -- -- 98
2019-06-23 00:00:00 13.3 27 Noroeste 36 Noroeste 0 -- -- 94
2019-06-22 23:00:00 13.2 24 Oeste 35 Noroeste 0 -- -- 97
2019-06-22 22:00:00 13 21 Noroeste 33 Oeste 0 -- -- 95
2019-06-22 21:00:00 13.9 27 Oeste 37 Oeste 0 -- -- 87
2019-06-22 20:00:00 15.1 26 Noroeste 35 Noroeste 0 -- -- 90
2019-06-22 19:00:00 16.3 23 Noroeste 29 Noroeste 0 -- -- 84
2019-06-22 18:00:00 19.2 13 Noroeste 23 Noroeste 0 -- -- 57
2019-06-22 17:00:00 19.2 13 Noroeste 24 Noroeste 0 -- -- 57
2019-06-22 16:00:00 19.8 13 Noroeste 21 Norte 0 -- -- 63
2019-06-22 15:00:00 19.2 10 Noroeste 24 Noroeste 0 -- -- 61
2019-06-22 14:00:00 19.8 9 Noroeste 26 Nordeste 0 -- -- 62
2019-06-22 13:00:00 17.8 16 Noroeste 24 Noroeste 0 -- -- 70
2019-06-22 12:00:00 17.3 14 Noroeste 29 Noroeste 0 -- -- 71
2019-06-22 11:00:00 16.5 21 Noroeste 29 Noroeste 0 -- -- 71
2019-06-22 10:00:00 15.3 19 Noroeste 28 Noroeste 0 -- -- 70
2019-06-22 09:00:00 14.1 15 Noroeste 23 Noroeste 0 -- -- 92
2019-06-22 08:00:00 12.2 17 Oeste 30 Oeste 0 -- -- 100
2019-06-22 07:00:00 11.5 18 Noroeste 30 Noroeste 0 -- -- 100
2019-06-22 06:00:00 11 19 Noroeste 27 Noroeste 0 -- -- 99
2019-06-22 05:00:00 11.5 10 Oeste 28 Noroeste 0 -- -- 100
2019-06-22 04:00:00 12 18 Oeste 31 Noroeste 0 -- -- 100
2019-06-22 03:00:00 11.8 20 Noroeste 29 Oeste 0 -- -- 99
2019-06-22 02:00:00 12.6 21 Noroeste 34 Oeste 0 -- -- 98
2019-06-22 01:00:00 12.7 26 Noroeste 36 Noroeste 0 -- -- 100
2019-06-22 00:00:00 12.9 22 Noroeste 34 Oeste 0 -- -- 100
2019-06-21 23:00:00 13.2 21 Noroeste 27 Noroeste 0 -- -- 100
2019-06-21 22:00:00 13.1 18 Noroeste 31 Noroeste 0 -- -- 100
2019-06-21 21:00:00 13.5 21 Noroeste 33 Noroeste 0 -- -- 100
2019-06-21 20:00:00 14.2 23 Oeste 35 Oeste 0 -- -- 92
2019-06-21 19:00:00 15.7 23 Oeste 37 Noroeste 0 -- -- 87
2019-06-21 18:00:00 14.7 25 Noroeste 34 Noroeste 0 -- -- 92
2019-06-21 17:00:00 15.7 13 Noroeste 27 Noroeste 0 -- -- 85
2019-06-21 16:00:00 16.8 13 Noroeste 30 Noroeste 0 -- -- 79
2019-06-21 15:00:00 17.1 13 Noroeste 33 Oeste 0 -- -- 78
2019-06-21 14:00:00 16.8 18 Noroeste 35 Noroeste 0 -- -- 78
2019-06-21 13:00:00 16.1 17 Noroeste 36 Noroeste 0 -- -- 81
2019-06-21 12:00:00 15 18 Noroeste 32 Noroeste 0 -- -- 90
2019-06-21 11:00:00 14.8 21 Noroeste 34 Noroeste 0 -- -- 88
2019-06-21 10:00:00 13.8 24 Noroeste 40 Noroeste 0 -- -- 94
2019-06-21 09:00:00 13 24 Noroeste 36 Noroeste 0 -- -- 100
2019-06-21 08:00:00 12.4 23 Noroeste 37 Noroeste 0 -- -- 100
2019-06-21 07:00:00 11.4 13 Noroeste 26 Oeste 0 -- -- 100
2019-06-21 06:00:00 11.1 12 Oeste 24 Noroeste 0 -- -- 98
2019-06-21 05:00:00 12.6 16 Noroeste 36 Noroeste 0 -- -- 100
2019-06-21 04:00:00 12.9 25 Noroeste 36 Noroeste 0 -- -- 100
2019-06-21 03:00:00 12.9 16 Noroeste 37 Oeste 0 -- -- 100
2019-06-21 02:00:00 12.7 15 Noroeste 33 Noroeste 0 -- -- 100
2019-06-21 01:00:00 12.7 19 Noroeste 38 Noroeste 0 -- -- 97
2019-06-21 00:00:00 13.2 26 Noroeste 38 Noroeste 0 -- -- 100
2019-06-20 23:00:00 13 26 Noroeste 38 Noroeste 0 -- -- 99
2019-06-20 22:00:00 12.8 22 Noroeste 36 Noroeste 0 -- -- 97
2019-06-20 21:00:00 13.4 24 Noroeste 33 Noroeste 0 -- -- 97
2019-06-20 20:00:00 13.7 27 Noroeste 38 Noroeste 0 -- -- 90
2019-06-20 19:00:00 14.3 23 Noroeste 36 Noroeste 0 -- -- 91
2019-06-20 18:00:00 15 21 Noroeste 33 Noroeste 0 -- -- 90
2019-06-20 17:00:00 16.2 19 Noroeste 31 Noroeste 0 -- -- 75
2019-06-20 16:00:00 17.1 15 Noroeste 32 Noroeste 0 -- -- 68
2019-06-20 15:00:00 17.2 15 Noroeste 28 Noroeste 0 -- -- 72
2019-06-20 14:00:00 17.4 13 Noroeste 29 Noroeste 0 -- -- 72
2019-06-20 13:00:00 16.3 16 Noroeste 36 Noroeste 0 -- -- 75
2019-06-20 12:00:00 16.1 22 Noroeste 36 Noroeste 0 -- -- 73
2019-06-20 11:00:00 15.1 23 Noroeste 36 Noroeste 0 -- -- 79
2019-06-20 10:00:00 15.2 26 Noroeste 39 Noroeste 0 -- -- 78
2019-06-20 09:00:00 13.6 27 Noroeste 37 Oeste 0 -- -- 90
2019-06-20 08:00:00 12.7 24 Oeste 37 Noroeste 0 -- -- 98
2019-06-20 07:00:00 12.4 26 Oeste 37 Oeste 0 -- -- 99
2019-06-20 06:00:00 12.2 24 Oeste 33 Oeste 0 -- -- 100
2019-06-20 05:00:00 13.1 19 Noroeste 36 Noroeste 0 -- -- 99
2019-06-20 04:00:00 12.4 24 Oeste 33 Oeste 0 -- -- 98
2019-06-20 03:00:00 12.8 25 Noroeste 40 Noroeste 0 -- -- 99
2019-06-20 02:00:00 12.6 24 Oeste 35 Oeste 0 -- -- 99
2019-06-20 01:00:00 13 23 Oeste 40 Noroeste 0 -- -- 99
2019-06-20 00:00:00 12.9 21 Noroeste 30 Oeste 0 -- -- 97
2019-06-19 23:00:00 13 21 Oeste 32 Oeste 0 -- -- 96
2019-06-19 22:00:00 13 23 Oeste 33 Oeste 0 -- -- 90
2019-06-19 21:00:00 13.8 20 Oeste 29 Oeste 0 -- -- 88
2019-06-19 20:00:00 15.5 16 Noroeste 24 Noroeste 0 -- -- 81
2019-06-19 19:00:00 16.9 16 Noroeste 27 Noroeste 0 -- -- 66
2019-06-19 18:00:00 16.8 18 Noroeste 25 Noroeste 0 -- -- 76
2019-06-19 17:00:00 17.8 16 Noroeste 26 Noroeste 0 -- -- 72
2019-06-19 16:00:00 16.9 16 Noroeste 24 Oeste 0 -- -- 79
2019-06-19 15:00:00 17.5 12 Noroeste 23 Noroeste 0 -- -- 76
2019-06-19 14:00:00 17.8 10 Oeste 22 Oeste 0 -- -- 75
2019-06-19 13:00:00 17.3 13 Noroeste 30 Noroeste 0 -- -- 79
2019-06-19 12:00:00 16.1 13 Noroeste 30 Oeste 0 -- -- 78
2019-06-19 11:00:00 16.2 20 Noroeste 29 Noroeste 0 -- -- 80
2019-06-19 10:00:00 15.1 18 Noroeste 26 Noroeste 0 -- -- 86
2019-06-19 09:00:00 14.9 15 Noroeste 26 Oeste 0 -- -- 87
2019-06-19 08:00:00 12.6 18 Oeste 24 Oeste 0 -- -- 94
2019-06-19 07:00:00 11.3 16 Oeste 24 Oeste 0 -- -- 99
2019-06-19 06:00:00 10.9 17 Oeste 21 Noroeste 0 -- -- 99
2019-06-19 05:00:00 11.7 15 Oeste 22 Noroeste 0 -- -- 98
2019-06-19 04:00:00 11.8 15 Oeste 24 Oeste 0 -- -- 99
2019-06-19 03:00:00 12.8 14 Oeste 21 Noroeste 0 -- -- 100
2019-06-19 02:00:00 13.1 14 Noroeste 19 Noroeste 0 -- -- 100
2019-06-19 01:00:00 12 13 Noroeste 18 Oeste 0 -- -- 98
2019-06-19 00:00:00 12.6 15 Oeste 18 Noroeste 0 -- -- 98
2019-06-18 23:00:00 12.4 11 Noroeste 24 Oeste 0 -- -- 98
2019-06-18 22:00:00 13.5 17 Oeste 30 Noroeste 0 -- -- 94
2019-06-18 21:00:00 14 19 Oeste 30 Oeste 0 -- -- 92
2019-06-18 20:00:00 15 23 Noroeste 33 Noroeste 0 -- -- 90
2019-06-18 19:00:00 16.9 15 Oeste 24 Oeste 0 -- -- 80
2019-06-18 18:00:00 17.5 13 Este 18 Sudeste 0 -- -- 88
2019-06-18 17:00:00 18.1 11 Este 18 Este 0 -- -- 85
2019-06-18 16:00:00 18.5 10 Este 21 Este 0 -- -- 84
2019-06-18 15:00:00 18.4 14 Sudoeste 25 Oeste 0 -- -- 75
2019-06-18 14:00:00 18.5 9 Oeste 24 Sudoeste 0 -- -- 77
2019-06-18 13:00:00 17.7 11 Oeste 21 Sudoeste 0 -- -- 77
2019-06-18 12:00:00 16.1 11 Oeste 27 Oeste 0 -- -- 96
2019-06-18 11:00:00 15.7 8 Oeste 21 Noroeste 0.2 -- -- 100
2019-06-18 10:00:00 15.4 13 Noroeste 20 Noroeste 0.6 -- -- 100
2019-06-18 09:00:00 15.7 13 Noroeste 18 Oeste 0 -- -- 100
2019-06-18 08:00:00 15.2 6 Oeste 19 Sudoeste 0 -- -- 100
2019-06-18 07:00:00 14.5 13 Oeste 30 Oeste 0 -- -- 100
2019-06-18 06:00:00 14.3 19 Oeste 32 Oeste 0 -- -- 100
2019-06-18 05:00:00 14.5 14 Oeste 26 Oeste 0 -- -- 99
2019-06-18 04:00:00 13.8 3 Noroeste 27 Oeste 0 -- -- 94
2019-06-18 03:00:00 14.4 13 Oeste 21 Sudoeste 0 -- -- 87
2019-06-18 02:00:00 14.5 3 Oeste 35 Oeste 0 -- -- 88
2019-06-18 01:00:00 14.7 19 Oeste 30 Oeste 0 -- -- 87
2019-06-18 00:00:00 14.8 21 Oeste 31 Oeste 0 -- -- 86
2019-06-17 23:00:00 15.1 24 Oeste 33 Oeste 0 -- -- 86
2019-06-17 22:00:00 14.6 23 Oeste 39 Oeste 0 -- -- 95
2019-06-17 21:00:00 15 22 Oeste 35 Oeste 0 -- -- 97
2019-06-17 20:00:00 15.7 23 Oeste 36 Oeste 0 -- -- 92
2019-06-17 19:00:00 16.1 27 Oeste 41 Oeste 0 -- -- 89
2019-06-17 18:00:00 18 29 Oeste 41 Oeste 0 -- -- 79
2019-06-17 17:00:00 18.9 29 Oeste 42 Oeste 0 -- -- 70
2019-06-17 16:00:00 18.6 24 Oeste 35 Oeste 0 -- -- 66
2019-06-17 15:00:00 19.9 22 Oeste 36 Oeste 0 -- -- 63
2019-06-17 14:00:00 17.9 21 Oeste 32 Sudoeste 0 -- -- 77
2019-06-17 13:00:00 18.1 19 Oeste 31 Sudoeste 0 -- -- 78
2019-06-17 12:00:00 18 21 Sudoeste 29 Sudoeste 0 -- -- 67
2019-06-17 11:00:00 18.2 20 Oeste 32 Sudoeste 0 -- -- 65
2019-06-17 10:00:00 18.3 18 Oeste 27 Sudoeste 0 -- -- 60
2019-06-17 09:00:00 17.1 18 Oeste 32 Oeste 0 -- -- 69
2019-06-17 08:00:00 15.1 24 Oeste 34 Oeste 0 -- -- 76
2019-06-17 07:00:00 13.4 24 Oeste 35 Oeste 0 -- -- 79
2019-06-17 06:00:00 14 26 Oeste 33 Oeste 0 -- -- 73
2019-06-17 05:00:00 14.6 22 Oeste 30 Oeste 0 -- -- 61
2019-06-17 04:00:00 15.2 18 Oeste 29 Oeste 0 -- -- 58
2019-06-17 03:00:00 14.6 18 Oeste 27 Oeste 0 -- -- 48
2019-06-17 02:00:00 12 0 Calma 11 Oeste 0 -- -- 55
2019-06-17 01:00:00 12 8 Sudoeste 13 Sudoeste 0 -- -- 78
2019-06-17 00:00:00 13.3 8 Oeste 19 Sudoeste 0 -- -- 75
2019-06-16 23:00:00 13 15 Noroeste 17 Oeste 0 -- -- 78
2019-06-16 22:00:00 12.7 10 Noroeste 13 Noroeste 0 -- -- 76
2019-06-16 21:00:00 14.2 9 Noroeste 16 Noroeste 0 -- -- 85
2019-06-16 20:00:00 15.2 10 Noroeste 16 Noroeste 0 -- -- 81
2019-06-16 19:00:00 17.9 8 Noroeste 16 Noroeste 0 -- -- 68
2019-06-16 18:00:00 17.7 8 Norte 20 Nordeste 0 -- -- 66
2019-06-16 17:00:00 18.5 7 Norte 20 Nordeste 0 -- -- 63
2019-06-16 16:00:00 18.5 9 Nordeste 22 Nordeste 0 -- -- 60
2019-06-16 15:00:00 18.2 9 Nordeste 21 Norte 0 -- -- 62
2019-06-16 14:00:00 18.9 10 Nordeste 22 Nordeste 0 -- -- 61
2019-06-16 13:00:00 18.6 11 Nordeste 22 Nordeste 0 -- -- 58
2019-06-16 12:00:00 17.9 9 Noroeste 21 Noroeste 0 -- -- 54
2019-06-16 11:00:00 16.2 11 Noroeste 21 Noroeste 0 -- -- 64
2019-06-16 10:00:00 15.2 11 Noroeste 18 Oeste 0 -- -- 68
2019-06-16 09:00:00 14.8 12 Oeste 24 Noroeste 0 -- -- 74
2019-06-16 08:00:00 12 9 Oeste 18 Oeste 0 -- -- 84
2019-06-16 07:00:00 8.4 11 Oeste 13 Oeste 0 -- -- 94
2019-06-16 06:00:00 7.8 6 Oeste 18 Oeste 0 -- -- 91
2019-06-16 05:00:00 8.9 13 Oeste 17 Oeste 0 -- -- 93
2019-06-16 04:00:00 7.8 9 Oeste 12 Oeste 0 -- -- 98
2019-06-16 03:00:00 7.8 8 Sudoeste 14 Oeste 0 -- -- 95
2019-06-16 02:00:00 7.8 11 Oeste 13 Oeste 0 -- -- 97
2019-06-16 01:00:00 8.7 10 Oeste 16 Noroeste 0 -- -- 94
2019-06-16 00:00:00 9.1 12 Oeste 21 Oeste 0 -- -- 91
2019-06-15 23:00:00 10.1 18 Oeste 24 Oeste 0 -- -- 90
2019-06-15 22:00:00 10.8 14 Noroeste 19 Oeste 0 -- -- 94
2019-06-15 21:00:00 11.7 15 Noroeste 21 Noroeste 0 -- -- 92
2019-06-15 20:00:00 13.7 18 Noroeste 26 Noroeste 0 -- -- 78
2019-06-15 19:00:00 13.5 10 Noroeste 23 Noroeste 0 -- -- 84
2019-06-15 18:00:00 14.1 16 Noroeste 23 Noroeste 0 -- -- 81
2019-06-15 17:00:00 15.3 8 Noroeste 22 Noroeste 0 -- -- 77
2019-06-15 16:00:00 15.7 10 Noroeste 23 Noroeste 0 -- -- 74
2019-06-15 15:00:00 15.7 8 Oeste 30 Sur 0 -- -- 74
2019-06-15 14:00:00 12.9 6 Este 23 Nordeste 0 -- -- 92
2019-06-15 13:00:00 13.5 13 Noroeste 22 Noroeste 0 -- -- 84
2019-06-15 12:00:00 13.1 8 Este 15 Este 0 -- -- 84
2019-06-15 11:00:00 12.5 8 Este 14 Este 0 -- -- 90
2019-06-15 10:00:00 12.4 9 Este 14 Este 0 -- -- 92
2019-06-15 09:00:00 11.3 2 Sudeste 10 Este 0 -- -- 94
2019-06-15 08:00:00 8.5 5 Sudoeste 9 Sudoeste 0 -- -- 100
2019-06-15 07:00:00 8 3 Sur 12 Este 0 -- -- 100
2019-06-15 06:00:00 9.5 0 Calma 14 Este 0 -- -- 100
2019-06-15 05:00:00 9.9 12 Este 21 Sudeste 0.2 -- -- 100
2019-06-15 04:00:00 11 11 Nordeste 20 Nordeste 0 -- -- 100
2019-06-15 03:00:00 10.9 0 Calma 10 Sur 0 -- -- 100
2019-06-15 02:00:00 10 3 Nordeste 15 Nordeste 0 -- -- 100
2019-06-15 01:00:00 9.2 3 Norte 9 Este 0 -- -- 90
2019-06-15 00:00:00 8.8 0 Calma 8 Nordeste 0 -- -- 88
2019-06-14 23:00:00 8.8 0 Calma 7 Norte 0 -- -- 93
2019-06-14 22:00:00 10.5 5 Noroeste 10 Noroeste 0 -- -- 96
2019-06-14 21:00:00 12.1 3 Noroeste 15 Nordeste 0 -- -- 90
2019-06-14 20:00:00 12.9 5 Noroeste 15 Oeste 0 -- -- 87
2019-06-14 19:00:00 13.4 6 Noroeste 15 Este 0 -- -- 81
2019-06-14 18:00:00 13.4 6 Este 14 Nordeste 0 -- -- 91
2019-06-14 17:00:00 15.2 7 Nordeste 24 Norte 0 -- -- 80
2019-06-14 16:00:00 14 4 Este 14 Este 0 -- -- 90
2019-06-14 15:00:00 13.2 5 Este 22 Sur 0 -- -- 88
2019-06-14 14:00:00 14.1 5 Este 22 Este 0 -- -- 79
2019-06-14 13:00:00 13.5 13 Este 22 Este 0 -- -- 82
2019-06-14 12:00:00 13 11 Este 20 Este 0 -- -- 84
2019-06-14 11:00:00 12.7 12 Nordeste 18 Nordeste 0 -- -- 82
2019-06-14 10:00:00 12.8 10 Este 18 Este 0 -- -- 85
2019-06-14 09:00:00 13.5 9 Este 13 Nordeste 0 -- -- 71
2019-06-14 08:00:00 10.2 3 Oeste 8 Nordeste 0 -- -- 93
2019-06-14 07:00:00 8.4 0 Calma 18 Nordeste 0 -- -- 91
2019-06-14 06:00:00 9.3 4 Nordeste 13 Norte 0 -- -- 94
2019-06-14 05:00:00 9 2 Nordeste 9 Nordeste 0 -- -- 98
2019-06-14 04:00:00 9.6 3 Nordeste 14 Este 0 -- -- 99
2019-06-14 03:00:00 9.3 5 Nordeste 18 Nordeste 0 -- -- 99
2019-06-14 02:00:00 10.4 11 Este 19 Este 0 -- -- 99
2019-06-14 01:00:00 10.1 6 Nordeste 15 Nordeste 0 -- -- 99
2019-06-14 00:00:00 10 5 Norte 19 Noroeste 0 -- -- 98
2019-06-13 23:00:00 10.7 10 Noroeste 19 Noroeste 0 -- -- 98
2019-06-13 22:00:00 11 6 Oeste 20 Noroeste 0 -- -- 98
2019-06-13 21:00:00 11 10 Noroeste 22 Noroeste 0 -- -- 97
2019-06-13 20:00:00 11.7 14 Noroeste 24 Noroeste 0 -- -- 93
2019-06-13 19:00:00 13.4 12 Noroeste 26 Noroeste 0 -- -- 82
2019-06-13 18:00:00 13.3 10 Nordeste 26 Nordeste 0 -- -- 81
2019-06-13 17:00:00 14.3 6 Nordeste 20 Norte 0 -- -- 81
2019-06-13 16:00:00 14.5 9 Nordeste 24 Norte 0 -- -- 81
2019-06-13 15:00:00 15.1 8 Nordeste 27 Oeste 0 -- -- 76
2019-06-13 14:00:00 14.2 14 Noroeste 26 Noroeste 0 -- -- 79
2019-06-13 13:00:00 13.6 11 Nordeste 23 Nordeste 0 -- -- 91
2019-06-13 12:00:00 12.3 13 Noroeste 27 Noroeste 0 -- -- 93
2019-06-13 11:00:00 11.9 9 Noroeste 23 Noroeste 0 -- -- 100
2019-06-13 10:00:00 11.2 7 Norte 21 Noroeste 0 -- -- 100
2019-06-13 09:00:00 10.2 8 Norte 22 Nordeste 0 -- -- 100
2019-06-13 08:00:00 10.4 8 Noroeste 26 Oeste 0 -- -- 100
2019-06-13 07:00:00 10.1 12 Noroeste 31 Noroeste 0 -- -- 100
2019-06-13 06:00:00 10 22 Noroeste 33 Noroeste 0 -- -- 100
2019-06-13 05:00:00 10.2 10 Noroeste 30 Noroeste 0.2 -- -- 100
2019-06-13 04:00:00 10.5 19 Noroeste 31 Oeste 0 -- -- 100
2019-06-13 03:00:00 10.8 11 Noroeste 24 Oeste 0 -- -- 100
2019-06-13 02:00:00 10.8 16 Noroeste 30 Noroeste 0 -- -- 100
2019-06-13 01:00:00 11.5 19 Noroeste 37 Noroeste 0 -- -- 100
2019-06-13 00:00:00 11.7 13 Noroeste 29 Oeste 0 -- -- 100
2019-06-12 23:00:00 11.5 15 Noroeste 33 Noroeste 0 -- -- 100
2019-06-12 22:00:00 12 25 Noroeste 42 Noroeste 0.2 -- -- 100
2019-06-12 21:00:00 11.9 26 Noroeste 39 Noroeste 0 -- -- 100
2019-06-12 20:00:00 11.7 28 Noroeste 36 Noroeste 0 -- -- 100
2019-06-12 19:00:00 12.1 27 Noroeste 38 Noroeste 0 -- -- 100
2019-06-12 18:00:00 12.2 26 Noroeste 33 Noroeste 0 -- -- 100
2019-06-12 17:00:00 13 21 Noroeste 27 Noroeste 0 -- -- 100
2019-06-12 16:00:00 12.6 22 Noroeste 31 Noroeste 0 -- -- 100
2019-06-12 15:00:00 13.2 25 Noroeste 33 Noroeste 0 -- -- 100
2019-06-12 14:00:00 13.1 20 Noroeste 31 Noroeste 0.2 -- -- 100
2019-06-12 13:00:00 14.1 12 Noroeste 29 Noroeste 0 -- -- 100
2019-06-12 12:00:00 13.1 16 Noroeste 33 Noroeste 0.2 -- -- 100
2019-06-12 11:00:00 12.9 24 Noroeste 38 Noroeste 0 -- -- 100
2019-06-12 10:00:00 12.7 23 Noroeste 32 Noroeste 0.4 -- -- 100
2019-06-12 09:00:00 12.7 12 Nordeste 33 Oeste 1 -- -- 100
2019-06-12 08:00:00 12.5 16 Noroeste 32 Noroeste 0.4 -- -- 100
2019-06-12 07:00:00 12.5 22 Noroeste 38 Noroeste 0.2 -- -- 100
2019-06-12 06:00:00 12.2 28 Noroeste 42 Noroeste 0.4 -- -- 100
2019-06-12 05:00:00 12.5 10 Nordeste 35 Noroeste 0.6 -- -- 100
2019-06-12 04:00:00 12.6 14 Oeste 39 Noroeste 0 -- -- 100
2019-06-12 03:00:00 12.2 19 Noroeste 38 Noroeste 0.2 -- -- 100
2019-06-12 02:00:00 12.3 24 Noroeste 35 Oeste 0.2 -- -- 100
2019-06-12 01:00:00 12.7 13 Sudoeste 36 Noroeste 0.2 -- -- 100
2019-06-12 00:00:00 12.3 24 Noroeste 40 Noroeste 0 -- -- 100
2019-06-11 23:00:00 12.6 32 Noroeste 49 Noroeste 0 -- -- 100
2019-06-11 22:00:00 12.8 23 Noroeste 52 Noroeste 0 -- -- 100
2019-06-11 21:00:00 12.7 31 Noroeste 48 Noroeste 0.2 -- -- 100
2019-06-11 20:00:00 13.1 39 Noroeste 54 Noroeste 0 -- -- 100
2019-06-11 19:00:00 12.7 10 Sur 36 Oeste 0 -- -- 100
2019-06-11 18:00:00 13.2 28 Noroeste 45 Noroeste 0 -- -- 100
2019-06-11 17:00:00 12.9 33 Noroeste 51 Noroeste 0 -- -- 100
2019-06-11 16:00:00 13.8 17 Oeste 42 Noroeste 0.2 -- -- 100
2019-06-11 15:00:00 14.1 27 Noroeste 45 Noroeste 0 -- -- 100
2019-06-11 14:00:00 13.7 11 Oeste 32 Oeste 0 -- -- 100
2019-06-11 13:00:00 13.7 19 Noroeste 35 Noroeste 0 -- -- 100
2019-06-11 12:00:00 13 21 Noroeste 36 Noroeste 0 -- -- 100
2019-06-11 11:00:00 12.1 14 Noroeste 33 Nordeste 0 -- -- 100
2019-06-11 10:00:00 11.5 15 Nordeste 36 Norte 0 -- -- 100
2019-06-11 09:00:00 11 13 Norte 34 Noroeste 0 -- -- 100
2019-06-11 08:00:00 10.7 9 Oeste 30 Noroeste 0 -- -- 100
2019-06-11 07:00:00 10.3 12 Noroeste 31 Oeste 0 -- -- 100
2019-06-11 06:00:00 10 13 Noroeste 27 Noroeste 0 -- -- 100
2019-06-11 05:00:00 10.1 21 Noroeste 41 Noroeste 0 -- -- 100
2019-06-11 04:00:00 10.4 13 Oeste 36 Oeste 0 -- -- 100
2019-06-11 03:00:00 10.3 13 Oeste 31 Noroeste 0 -- -- 100
2019-06-11 02:00:00 10.4 20 Noroeste 38 Noroeste 0 -- -- 100
2019-06-11 01:00:00 10.8 25 Noroeste 50 Noroeste 0 -- -- 100
2019-06-11 00:00:00 11 15 Oeste 44 Noroeste 0 -- -- 100
2019-06-10 23:00:00 11.2 24 Noroeste 47 Noroeste 0 -- -- 100
2019-06-10 22:00:00 11 29 Noroeste 41 Noroeste 0 -- -- 100
2019-06-10 21:00:00 11.5 13 Nordeste 33 Norte 0 -- -- 100
2019-06-10 20:00:00 11.7 18 Norte 34 Nordeste 0 -- -- 99
2019-06-10 19:00:00 12.2 19 Oeste 46 Noroeste 0 -- -- 93
2019-06-10 18:00:00 12.7 35 Noroeste 47 Noroeste 0 -- -- 93
2019-06-10 17:00:00 14.1 9 Este 37 Noroeste 0 -- -- 91
2019-06-10 16:00:00 13.7 22 Noroeste 37 Noroeste 0 -- -- 90
2019-06-10 15:00:00 13.8 26 Noroeste 41 Noroeste 0 -- -- 88
2019-06-10 14:00:00 14.4 12 Nordeste 37 Nordeste 0 -- -- 85
2019-06-10 13:00:00 13.8 14 Oeste 37 Noroeste 0 -- -- 98
2019-06-10 12:00:00 11.6 22 Noroeste 33 Noroeste 0 -- -- 100
2019-06-10 11:00:00 11.3 21 Noroeste 33 Noroeste 0 -- -- 100
2019-06-10 10:00:00 11.3 10 Nordeste 32 Noroeste 0 -- -- 100
2019-06-10 09:00:00 11 18 Noroeste 35 Noroeste 0 -- -- 100
2019-06-10 08:00:00 10.4 19 Noroeste 39 Noroeste 0.2 -- -- 100
2019-06-10 07:00:00 10.3 14 Oeste 34 Oeste 0 -- -- 100
2019-06-10 06:00:00 10.7 18 Oeste 39 Noroeste 0 -- -- 100
2019-06-10 05:00:00 10.5 21 Noroeste 34 Noroeste 0 -- -- 100
2019-06-10 04:00:00 10.8 30 Noroeste 41 Noroeste 0 -- -- 100
2019-06-10 03:00:00 10.5 14 Noroeste 32 Norte 0 -- -- 100
2019-06-10 02:00:00 10.3 15 Noroeste 29 Noroeste 0 -- -- 100
2019-06-10 01:00:00 10.7 14 Noroeste 31 Noroeste 0 -- -- 100
2019-06-10 00:00:00 10.6 6 Sudoeste 35 Nordeste 0 -- -- 100
2019-06-09 23:00:00 10.7 9 Norte 25 Oeste 0 -- -- 100
2019-06-09 22:00:00 10.5 10 Noroeste 31 Oeste 0 -- -- 100
2019-06-09 21:00:00 10.8 10 Oeste 33 Oeste 0 -- -- 100
2019-06-09 20:00:00 11.4 13 Noroeste 34 Norte 0 -- -- 97
2019-06-09 19:00:00 11.8 22 Noroeste 32 Noroeste 0 -- -- 94
2019-06-09 18:00:00 13.7 23 Noroeste 42 Noroeste 0 -- -- 85
2019-06-09 17:00:00 13.1 27 Noroeste 40 Noroeste 0 -- -- 84
2019-06-09 16:00:00 15 15 Nordeste 32 Nordeste 0 -- -- 80
2019-06-09 15:00:00 14.3 12 Norte 40 Noroeste 0 -- -- 81
2019-06-09 14:00:00 14.1 15 Oeste 41 Noroeste 0 -- -- 76
2019-06-09 13:00:00 13.5 10 Norte 31 Nordeste 0 -- -- 84
2019-06-09 12:00:00 13.2 12 Nordeste 32 Nordeste 0 -- -- 82
2019-06-09 11:00:00 12.6 9 Sudoeste 24 Noroeste 0 -- -- 88
2019-06-09 10:00:00 11 12 Nordeste 30 Nordeste 0 -- -- 100
2019-06-09 09:00:00 10.5 15 Nordeste 31 Nordeste 0 -- -- 100
2019-06-09 08:00:00 10.3 18 Nordeste 35 Nordeste 0 -- -- 100
2019-06-09 07:00:00 9.7 9 Norte 28 Nordeste 0 -- -- 100
2019-06-09 06:00:00 9.8 10 Noroeste 39 Noroeste 0 -- -- 100
2019-06-09 05:00:00 9.9 12 Oeste 33 Nordeste 0 -- -- 100
2019-06-09 04:00:00 10 9 Noroeste 31 Noroeste 0 -- -- 100
2019-06-09 03:00:00 9.8 16 Noroeste 41 Noroeste 0 -- -- 100
2019-06-09 02:00:00 10.2 28 Noroeste 41 Noroeste 0 -- -- 100
2019-06-09 01:00:00 10 23 Noroeste 41 Noroeste 0 -- -- 100
2019-06-09 00:00:00 10.1 24 Noroeste 46 Noroeste 0 -- -- 100
2019-06-08 23:00:00 10.3 27 Noroeste 44 Oeste 0 -- -- 100
2019-06-08 22:00:00 10.9 10 Oeste 39 Noroeste 0 -- -- 100
2019-06-08 21:00:00 10.8 15 Noroeste 38 Noroeste 0 -- -- 100
2019-06-08 20:00:00 11.2 23 Noroeste 40 Noroeste 0 -- -- 96
2019-06-08 19:00:00 11.9 29 Noroeste 39 Noroeste 0 -- -- 95
2019-06-08 18:00:00 13 28 Noroeste 42 Noroeste 0 -- -- 91
2019-06-08 17:00:00 13.6 13 Noroeste 28 Noroeste 0 -- -- 88
2019-06-08 16:00:00 13.6 15 Nordeste 29 Norte 0 -- -- 86
2019-06-08 15:00:00 15.4 14 Nordeste 26 Nordeste 0 -- -- 83
2019-06-08 14:00:00 15.6 16 Nordeste 29 Nordeste 0 -- -- 85
2019-06-08 13:00:00 15.9 12 Este 21 Nordeste 0 -- -- 86
2019-06-08 12:00:00 15.5 12 Este 20 Nordeste 0 -- -- 93
2019-06-08 11:00:00 14.9 13 Nordeste 22 Nordeste 0 -- -- 100
2019-06-08 10:00:00 13 15 Este 30 Nordeste 0 -- -- 100
2019-06-08 09:00:00 12.5 13 Nordeste 29 Nordeste 0 -- -- 100
2019-06-08 08:00:00 12.5 13 Nordeste 24 Norte 0.2 -- -- 100
2019-06-08 07:00:00 12.5 7 Este 22 Nordeste 0.6 -- -- 100
2019-06-08 06:00:00 12.3 14 Noroeste 30 Oeste 0.2 -- -- 100
2019-06-08 05:00:00 12.2 18 Noroeste 36 Noroeste 0 -- -- 100
2019-06-08 04:00:00 12.2 14 Noroeste 24 Noroeste 0 -- -- 100
2019-06-08 03:00:00 12 17 Noroeste 27 Noroeste 0 -- -- 100
2019-06-08 02:00:00 11.9 23 Noroeste 33 Noroeste 0 -- -- 100
2019-06-08 01:00:00 12.4 18 Noroeste 37 Noroeste 0 -- -- 100
2019-06-08 00:00:00 11.9 13 Oeste 33 Noroeste 0 -- -- 100
2019-06-07 23:00:00 11.9 19 Noroeste 33 Noroeste 0 -- -- 100
2019-06-07 22:00:00 11.9 10 Noroeste 22 Noroeste 0 -- -- 99
2019-06-07 21:00:00 12.2 12 Noroeste 25 Noroeste 0 -- -- 97
2019-06-07 20:00:00 13.6 10 Noroeste 24 Oeste 0 -- -- 86
2019-06-07 19:00:00 14.9 9 Norte 31 Norte 0 -- -- 80
2019-06-07 18:00:00 15.2 11 Nordeste 29 Nordeste 0 -- -- 74
2019-06-07 17:00:00 16.2 16 Nordeste 40 Nordeste 0 -- -- 71
2019-06-07 16:00:00 16 17 Nordeste 32 Nordeste 0 -- -- 73
2019-06-07 15:00:00 15.3 14 Nordeste 29 Nordeste 0 -- -- 78
2019-06-07 14:00:00 14.5 13 Nordeste 29 Nordeste 0 -- -- 85
2019-06-07 13:00:00 12.9 13 Nordeste 27 Nordeste 0 -- -- 99
2019-06-07 12:00:00 11.6 15 Nordeste 27 Norte 0 -- -- 100
2019-06-07 11:00:00 11.9 7 Este 31 Oeste 0 -- -- 100
2019-06-07 10:00:00 11.7 8 Sudoeste 26 Este 0 -- -- 100
2019-06-07 09:00:00 10.9 8 Oeste 28 Noroeste 0 -- -- 100
2019-06-07 08:00:00 10 21 Noroeste 35 Oeste 0 -- -- 100
2019-06-07 07:00:00 9.9 20 Noroeste 34 Noroeste 0.2 -- -- 100
2019-06-07 06:00:00 9.9 13 Noroeste 33 Oeste 0 -- -- 100
2019-06-07 05:00:00 11 10 Oeste 37 Oeste 0 -- -- 100
2019-06-07 04:00:00 10.9 22 Noroeste 46 Oeste 0 -- -- 100
2019-06-07 03:00:00 10.2 19 Noroeste 40 Noroeste 0 -- -- 99
2019-06-07 02:00:00 10.2 29 Noroeste 41 Noroeste 0 -- -- 100
2019-06-07 01:00:00 10.2 28 Noroeste 42 Noroeste 0 -- -- 100
2019-06-07 00:00:00 10.3 28 Noroeste 44 Noroeste 0 -- -- 99
2019-06-06 23:00:00 10.3 30 Noroeste 42 Noroeste 0 -- -- 100
2019-06-06 22:00:00 10.3 27 Noroeste 41 Noroeste 0 -- -- 100
2019-06-06 21:00:00 10.5 24 Noroeste 35 Noroeste 0 -- -- 99
2019-06-06 20:00:00 11 17 Noroeste 29 Oeste 0 -- -- 92
2019-06-06 19:00:00 13 6 Norte 25 Nordeste 0 -- -- 82
2019-06-06 18:00:00 13.7 13 Nordeste 27 Nordeste 0 -- -- 74
2019-06-06 17:00:00 14.1 15 Nordeste 32 Norte 0 -- -- 71
2019-06-06 16:00:00 14.5 15 Nordeste 28 Nordeste 0 -- -- 68
2019-06-06 15:00:00 14.5 17 Nordeste 32 Nordeste 0 -- -- 67
2019-06-06 14:00:00 13.8 18 Nordeste 34 Nordeste 0 -- -- 72
2019-06-06 13:00:00 13.9 17 Nordeste 31 Nordeste 0 -- -- 74
2019-06-06 12:00:00 13.3 16 Nordeste 35 Norte 0 -- -- 75
2019-06-06 11:00:00 11.6 13 Nordeste 27 Nordeste 0 -- -- 90
2019-06-06 10:00:00 12.1 14 Nordeste 31 Nordeste 0 -- -- 83
2019-06-06 09:00:00 10.8 11 Nordeste 30 Norte 0 -- -- 94
2019-06-06 08:00:00 10.1 10 Nordeste 25 Nordeste 0 -- -- 99
2019-06-06 07:00:00 10 9 Norte 34 Nordeste 0 -- -- 99
2019-06-06 06:00:00 10.3 10 Este 35 Nordeste 0 -- -- 98
2019-06-06 05:00:00 10.2 8 Noroeste 24 Oeste 0 -- -- 98
2019-06-06 04:00:00 10.4 8 Sudoeste 37 Oeste 0 -- -- 100
2019-06-06 03:00:00 10.6 6 Este 30 Norte 0 -- -- 98
2019-06-06 02:00:00 10.9 14 Norte 28 Nordeste 0 -- -- 93
2019-06-06 01:00:00 10.8 13 Nordeste 30 Nordeste 0 -- -- 95
2019-06-06 00:00:00 11.3 12 Nordeste 30 Nordeste 0 -- -- 98
2019-06-05 23:00:00 11.7 6 Este 30 Nordeste 0 -- -- 98
2019-06-05 22:00:00 11.7 10 Nordeste 24 Nordeste 0 -- -- 95
2019-06-05 21:00:00 11.9 8 Nordeste 24 Nordeste 0 -- -- 94
2019-06-05 20:00:00 12.5 8 Nordeste 26 Norte 0 -- -- 94
2019-06-05 19:00:00 13.3 13 Nordeste 25 Nordeste 0 -- -- 90
2019-06-05 18:00:00 13.6 13 Nordeste 26 Norte 0 -- -- 90
2019-06-05 17:00:00 14.5 13 Norte 26 Nordeste 0 -- -- 86
2019-06-05 16:00:00 14.8 12 Nordeste 25 Nordeste 0 -- -- 85
2019-06-05 15:00:00 15.3 7 Nordeste 31 Noroeste 0 -- -- 82
2019-06-05 14:00:00 14.5 12 Noroeste 26 Noroeste 0 -- -- 91
2019-06-05 13:00:00 14.8 14 Nordeste 24 Nordeste 0 -- -- 96
2019-06-05 12:00:00 14.2 10 Nordeste 28 Noroeste 0 -- -- 99
2019-06-05 11:00:00 13.8 9 Noroeste 42 Noroeste 0 -- -- 100
2019-06-05 10:00:00 13 26 Noroeste 43 Noroeste 0 -- -- 100
2019-06-05 09:00:00 12.6 26 Noroeste 41 Noroeste 0 -- -- 100
2019-06-05 08:00:00 12.4 21 Noroeste 35 Noroeste 0 -- -- 100
2019-06-05 07:00:00 11.9 7 Oeste 28 Noroeste 0 -- -- 100
2019-06-05 06:00:00 12.1 18 Noroeste 39 Noroeste 0 -- -- 100
2019-06-05 05:00:00 12.6 26 Noroeste 44 Noroeste 0 -- -- 100
2019-06-05 04:00:00 12.3 14 Oeste 41 Noroeste 0 -- -- 100
2019-06-05 03:00:00 12.5 27 Noroeste 41 Noroeste 0 -- -- 100
2019-06-05 02:00:00 12.5 21 Noroeste 39 Noroeste 0 -- -- 100
2019-06-05 01:00:00 12.6 21 Noroeste 34 Noroeste 0 -- -- 100
2019-06-05 00:00:00 12.5 21 Noroeste 31 Noroeste 0 -- -- 100
2019-06-04 23:00:00 12.5 23 Noroeste 36 Noroeste 0 -- -- 100
2019-06-04 22:00:00 12.6 22 Noroeste 31 Noroeste 0 -- -- 91
2019-06-04 21:00:00 15.6 14 Noroeste 20 Oeste 0 -- -- 45
2019-06-04 20:00:00 17 17 Noroeste 27 Noroeste 0 -- -- 58
2019-06-04 19:00:00 17.3 20 Noroeste 26 Noroeste 0 -- -- 50
2019-06-04 18:00:00 20.2 18 Noroeste 26 Noroeste 0 -- -- 34
2019-06-04 17:00:00 22.4 18 Noroeste 25 Noroeste 0 -- -- 34
2019-06-04 16:00:00 22.3 15 Noroeste 27 Noroeste 0 -- -- 32
2019-06-04 15:00:00 20.5 19 Noroeste 29 Noroeste 0 -- -- 30
2019-06-04 14:00:00 20.2 21 Noroeste 29 Noroeste 0 -- -- 30
2019-06-04 13:00:00 22.9 18 Noroeste 24 Noroeste 0 -- -- 29
2019-06-04 12:00:00 22.5 17 Noroeste 27 Noroeste 0 -- -- 27
2019-06-04 11:00:00 21.3 17 Noroeste 32 Noroeste 0 -- -- 29
2019-06-04 10:00:00 20.2 19 Noroeste 27 Noroeste 0 -- -- 30
2019-06-04 09:00:00 18.8 18 Noroeste 26 Noroeste 0 -- -- 30
2019-06-04 08:00:00 17.6 15 Noroeste 24 Noroeste 0 -- -- 32
2019-06-04 07:00:00 16.7 16 Noroeste 26 Noroeste 0 -- -- 32
2019-06-04 06:00:00 18 14 Oeste 28 Noroeste 0 -- -- 27
2019-06-04 05:00:00 18.2 14 Oeste 28 Noroeste 0 -- -- 28
2019-06-04 04:00:00 18.3 14 Noroeste 28 Oeste 0 -- -- 29
2019-06-04 03:00:00 19.5 5 Sur 31 Nordeste 0 -- -- 28
2019-06-04 02:00:00 20.3 16 Norte 40 Norte 0 -- -- 25
2019-06-04 01:00:00 20.2 21 Nordeste 41 Norte 0 -- -- 27
2019-06-04 00:00:00 20.3 18 Nordeste 38 Nordeste 0 -- -- 26
2019-06-03 23:00:00 20.6 19 Nordeste 34 Nordeste 0 -- -- 24
2019-06-03 22:00:00 20.6 18 Nordeste 35 Norte 0 -- -- 25
2019-06-03 21:00:00 20.4 19 Nordeste 36 Norte 0 -- -- 26
2019-06-03 20:00:00 21.5 19 Norte 42 Norte 0 -- -- 25
2019-06-03 19:00:00 22.2 19 Nordeste 41 Nordeste 0 -- -- 23
2019-06-03 18:00:00 23.4 17 Nordeste 37 Norte 0 -- -- 20
2019-06-03 17:00:00 24.3 17 Nordeste 34 Nordeste 0 -- -- 19
2019-06-03 16:00:00 24.7 19 Nordeste 35 Nordeste 0 -- -- 18
2019-06-03 15:00:00 26 9 Nordeste 28 Nordeste 0 -- -- 15
2019-06-03 14:00:00 25.9 15 Nordeste 30 Norte 0 -- -- 17
2019-06-03 13:00:00 26 14 Norte 27 Nordeste 0 -- -- 19
2019-06-03 12:00:00 25.4 17 Nordeste 31 Nordeste 0 -- -- 17
2019-06-03 11:00:00 24.8 9 Oeste 26 Norte 0 -- -- 23
2019-06-03 10:00:00 23.9 8 Norte 26 Noroeste 0 -- -- 25
2019-06-03 09:00:00 22.7 10 Noroeste 19 Noroeste 0 -- -- 23
2019-06-03 08:00:00 20.3 4 Oeste 10 Sudoeste 0 -- -- 27
2019-06-03 07:00:00 19.8 5 Norte 12 Norte 0 -- -- 25
2019-06-03 06:00:00 17.4 5 Sur 12 Este 0 -- -- 27
2019-06-03 05:00:00 19.4 2 Sudeste 19 Oeste 0 -- -- 27
2019-06-03 04:00:00 19.2 13 Noroeste 18 Noroeste 0 -- -- 26
2019-06-03 03:00:00 21.4 7 Sudeste 22 Sudeste 0 -- -- 19
2019-06-03 02:00:00 21.2 16 Este 24 Sudeste 0 -- -- 22
2019-06-03 01:00:00 21.2 15 Sudeste 29 Nordeste 0 -- -- 32
2019-06-03 00:00:00 22.2 21 Este 40 Nordeste 0 -- -- 32
2019-06-02 23:00:00 23.5 11 Nordeste 24 Nordeste 0 -- -- 18
2019-06-02 22:00:00 21.3 5 Norte 20 Norte 0 -- -- 17
2019-06-02 21:00:00 20.8 12 Noroeste 18 Noroeste 0 -- -- 20
2019-06-02 20:00:00 22.8 12 Noroeste 20 Oeste 0 -- -- 21
2019-06-02 19:00:00 23.9 11 Noroeste 17 Noroeste 0 -- -- 24
2019-06-02 18:00:00 25.5 9 Noroeste 20 Noroeste 0 -- -- 20
2019-06-02 17:00:00 27.4 12 Este 25 Este 0 -- -- 19
2019-06-02 16:00:00 27.4 17 Este 24 Este 0 -- -- 19
2019-06-02 15:00:00 26.6 15 Este 26 Este 0 -- -- 24
2019-06-02 14:00:00 26.1 20 Este 35 Este 0 -- -- 26
2019-06-02 13:00:00 25.8 23 Este 32 Este 0 -- -- 25
2019-06-02 12:00:00 25.2 21 Este 30 Este 0 -- -- 24
2019-06-02 11:00:00 25.1 23 Sudeste 33 Sudeste 0 -- -- 22
2019-06-02 10:00:00 24.2 19 Sudeste 30 Sudeste 0 -- -- 25
2019-06-02 09:00:00 23.6 18 Sudeste 32 Sudeste 0 -- -- 24
2019-06-02 08:00:00 21.3 13 Sudeste 24 Sudeste 0 -- -- 32
2019-06-02 07:00:00 18.5 12 Sudeste 27 Sudeste 0 -- -- 40
2019-06-02 06:00:00 19.8 10 Sudeste 22 Sudeste 0 -- -- 35
2019-06-02 05:00:00 18.3 14 Este 25 Este 0 -- -- 46
2019-06-02 04:00:00 17.1 8 Sudeste 12 Sudeste 0 -- -- 57
2019-06-02 03:00:00 15.2 10 Oeste 18 Oeste 0 -- -- 63
2019-06-02 02:00:00 16.1 12 Oeste 22 Norte 0 -- -- 56
2019-06-02 01:00:00 17.6 13 Noroeste 19 Noroeste 0 -- -- 45
2019-06-02 00:00:00 17 12 Noroeste 19 Noroeste 0 -- -- 42
2019-06-01 23:00:00 18.3 12 Noroeste 25 Noroeste 0 -- -- 39
2019-06-01 22:00:00 18 14 Oeste 20 Oeste 0 -- -- 38
2019-06-01 21:00:00 19.5 13 Oeste 23 Noroeste 0 -- -- 36
2019-06-01 20:00:00 22.3 9 Noroeste 21 Noroeste 0 -- -- 31
2019-06-01 19:00:00 24.3 9 Noroeste 17 Nordeste 0 -- -- 31
2019-06-01 18:00:00 25.7 5 Norte 15 Noroeste 0 -- -- 31
2019-06-01 17:00:00 25.8 6 Norte 17 Norte 0 -- -- 31
2019-06-01 16:00:00 25.5 9 Nordeste 22 Nordeste 0 -- -- 33
2019-06-01 15:00:00 25 8 Nordeste 21 Noroeste 0 -- -- 34
2019-06-01 14:00:00 23.6 10 Noroeste 18 Noroeste 0 -- -- 37
2019-06-01 13:00:00 25.1 9 Este 17 Norte 0 -- -- 41
2019-06-01 12:00:00 24 8 Norte 16 Norte 0 -- -- 46
2019-06-01 11:00:00 25.1 8 Norte 18 Noroeste 0 -- -- 31
2019-06-01 10:00:00 24.7 6 Noroeste 13 Norte 0 -- -- 30
2019-06-01 09:00:00 25.2 4 Noroeste 8 Oeste 0 -- -- 17
2019-06-01 08:00:00 18.5 6 Oeste 11 Oeste 0 -- -- 23
2019-06-01 07:00:00 15.5 7 Oeste 11 Oeste 0 -- -- 24
2019-06-01 06:00:00 16.4 4 Sur 30 Nordeste 0 -- -- 20
2019-06-01 05:00:00 21.1 19 Nordeste 27 Este 0 -- -- 14
2019-06-01 04:00:00 19.5 6 Norte 18 Norte 0 -- -- 22
2019-06-01 03:00:00 17.1 8 Noroeste 17 Noroeste 0 -- -- 35
2019-06-01 02:00:00 17.5 10 Noroeste 15 Noroeste 0 -- -- 30
2019-06-01 01:00:00 17.8 9 Noroeste 14 Noroeste 0 -- -- 24
2019-06-01 00:00:00 17.2 6 Noroeste 10 Noroeste 0 -- -- 22
2019-05-31 23:00:00 18.9 5 Noroeste 13 Norte 0 -- -- 20
2019-05-31 22:00:00 18.3 6 Noroeste 13 Noroeste 0 -- -- 22
2019-05-31 21:00:00 18.9 9 Noroeste 15 Noroeste 0 -- -- 22
2019-05-31 20:00:00 21.1 10 Noroeste 18 Noroeste 0 -- -- 21
2019-05-31 19:00:00 22.4 9 Noroeste 20 Noroeste 0 -- -- 16
2019-05-31 18:00:00 23.9 6 Norte 22 Noroeste 0 -- -- 16
2019-05-31 17:00:00 24.3 12 Noroeste 23 Noroeste 0 -- -- 25
2019-05-31 16:00:00 25.3 7 Nordeste 17 Este 0 -- -- 32
2019-05-31 15:00:00 25.7 10 Sudeste 17 Este 0 -- -- 20
2019-05-31 14:00:00 25.6 10 Este 23 Este 0 -- -- 23
2019-05-31 13:00:00 25.1 13 Este 20 Este 0 -- -- 16
2019-05-31 12:00:00 24.2 12 Este 18 Este 0 -- -- 20
2019-05-31 11:00:00 23.9 11 Este 17 Este 0 -- -- 17
2019-05-31 10:00:00 23.3 7 Este 13 Este 0 -- -- 15
2019-05-31 09:00:00 22.7 5 Sudeste 11 Sudeste 0 -- -- 21
2019-05-31 08:00:00 17.8 7 Sur 10 Sur 0 -- -- 25
2019-05-31 07:00:00 14.2 7 Sur 10 Sudeste 0 -- -- 29
2019-05-31 06:00:00 12.5 8 Sur 10 Sudeste 0 -- -- 33
2019-05-31 05:00:00 12.1 2 Sur 12 Oeste 0 -- -- 31
2019-05-31 04:00:00 14.1 7 Noroeste 15 Noroeste 0 -- -- 27
2019-05-31 03:00:00 17.2 7 Noroeste 13 Norte 0 -- -- 21
2019-05-31 02:00:00 15.7 6 Noroeste 13 Norte 0 -- -- 23
2019-05-31 01:00:00 16.1 8 Noroeste 12 Noroeste 0 -- -- 23
2019-05-31 00:00:00 15.5 10 Noroeste 13 Oeste 0 -- -- 24
2019-05-30 23:00:00 14.9 9 Noroeste 13 Oeste 0 -- -- 25
2019-05-30 22:00:00 15 11 Oeste 13 Noroeste 0 -- -- 27
2019-05-30 21:00:00 16.3 11 Noroeste 14 Noroeste 0 -- -- 27
2019-05-30 20:00:00 19.5 9 Noroeste 19 Noroeste 0 -- -- 25
2019-05-30 19:00:00 20.1 11 Noroeste 19 Noroeste 0 -- -- 27
2019-05-30 18:00:00 20.4 10 Noroeste 20 Norte 0 -- -- 32
2019-05-30 17:00:00 21.2 10 Noroeste 17 Este 0 -- -- 50
2019-05-30 16:00:00 23.4 10 Este 22 Este 0 -- -- 29
2019-05-30 15:00:00 24.2 12 Este 21 Este 0 -- -- 21
2019-05-30 14:00:00 23.9 14 Este 21 Este 0 -- -- 18
2019-05-30 13:00:00 23.9 16 Este 21 Este 0 -- -- 21
2019-05-30 12:00:00 23.5 10 Este 21 Nordeste 0 -- -- 22
2019-05-30 11:00:00 22.9 12 Este 17 Este 0 -- -- 23
2019-05-30 10:00:00 21.9 9 Este 19 Sudeste 0 -- -- 23
2019-05-30 09:00:00 21.1 13 Sudeste 19 Sudeste 0 -- -- 20
2019-05-30 08:00:00 18.4 10 Sudeste 15 Sudeste 0 -- -- 16
2019-05-30 07:00:00 10.7 4 Oeste 14 Sur 0 -- -- 74
2019-05-30 06:00:00 14.3 10 Sur 13 Sudeste 0 -- -- 28
2019-05-30 05:00:00 11 2 Noroeste 8 Sudoeste 0 -- -- 34
2019-05-30 04:00:00 13.6 6 Oeste 11 Oeste 0 -- -- 28
2019-05-30 03:00:00 15.1 6 Noroeste 13 Oeste 0 -- -- 22
2019-05-30 02:00:00 11 11 Noroeste 18 Noroeste 0 -- -- 53
2019-05-30 01:00:00 9.8 13 Noroeste 21 Noroeste 0 -- -- 92
2019-05-30 00:00:00 14.7 12 Noroeste 17 Oeste 0 -- -- 20
2019-05-29 23:00:00 13.8 14 Noroeste 18 Oeste 0 -- -- 35
2019-05-29 22:00:00 14.4 14 Noroeste 18 Oeste 0 -- -- 38
2019-05-29 21:00:00 15.8 12 Noroeste 16 Noroeste 0 -- -- 38
2019-05-29 20:00:00 18 11 Noroeste 18 Noroeste 0 -- -- 40
2019-05-29 19:00:00 18.5 12 Noroeste 18 Noroeste 0 -- -- 52
2019-05-29 18:00:00 19 14 Noroeste 20 Noroeste 0 -- -- 46
2019-05-29 17:00:00 20.2 12 Noroeste 19 Noroeste 0 -- -- 41
2019-05-29 16:00:00 21.5 11 Noroeste 19 Noroeste 0 -- -- 41
2019-05-29 15:00:00 24.5 6 Nordeste 19 Nordeste 0 -- -- 25
2019-05-29 14:00:00 24.3 9 Norte 16 Noroeste 0 -- -- 26
2019-05-29 13:00:00 22.2 7 Norte 16 Noroeste 0 -- -- 44
2019-05-29 12:00:00 19.2 9 Norte 14 Norte 0 -- -- 61
2019-05-29 11:00:00 21.7 5 Norte 14 Este 0 -- -- 47
2019-05-29 10:00:00 22.4 9 Este 15 Este 0 -- -- 23
2019-05-29 09:00:00 21.9 4 Nordeste 8 Nordeste 0 -- -- 23
2019-05-29 08:00:00 15.6 5 Oeste 9 Sudoeste 0 -- -- 38
2019-05-29 07:00:00 11.8 5 Oeste 13 Norte 0 -- -- 41
2019-05-29 06:00:00 14.7 7 Noroeste 14 Noroeste 0 -- -- 34
2019-05-29 05:00:00 13.4 9 Noroeste 13 Norte 0 -- -- 38
2019-05-29 04:00:00 13.5 8 Oeste 14 Oeste 0 -- -- 37
2019-05-29 03:00:00 13.5 9 Noroeste 13 Oeste 0 -- -- 38
2019-05-29 02:00:00 14.4 10 Oeste 15 Noroeste 0 -- -- 37
2019-05-29 01:00:00 13.7 11 Noroeste 15 Noroeste 0 -- -- 42
2019-05-29 00:00:00 10.6 13 Oeste 17 Norte 0 -- -- 66
2019-05-28 23:00:00 11.2 12 Noroeste 19 Oeste 0 -- -- 90
2019-05-28 22:00:00 15.1 17 Oeste 19 Oeste 0 -- -- 43
2019-05-28 21:00:00 16 12 Noroeste 17 Noroeste 0 -- -- 44
2019-05-28 20:00:00 19.9 4 Sudoeste 14 Norte 0 -- -- 40
2019-05-28 19:00:00 21.1 8 Este 16 Este 0 -- -- 50
2019-05-28 18:00:00 21.9 9 Este 17 Este 0 -- -- 33
2019-05-28 17:00:00 21.7 7 Nordeste 16 Nordeste 0 -- -- 40
2019-05-28 16:00:00 22.7 7 Norte 17 Nordeste 0 -- -- 43
2019-05-28 15:00:00 23 9 Nordeste 24 Nordeste 0 -- -- 34
2019-05-28 14:00:00 22.8 12 Este 23 Este 0 -- -- 35
2019-05-28 13:00:00 22.5 11 Este 20 Este 0 -- -- 33
2019-05-28 12:00:00 22 14 Este 20 Este 0 -- -- 34
2019-05-28 11:00:00 22.3 12 Este 19 Este 0 -- -- 35
2019-05-28 10:00:00 22.3 11 Este 17 Este 0 -- -- 33
2019-05-28 09:00:00 22.1 0 Calma 8 Norte 0 -- -- 37
2019-05-28 08:00:00 15.2 4 Sudeste 9 Oeste 0 -- -- 50
2019-05-28 07:00:00 11.1 9 Noroeste 19 Noroeste 0 -- -- 76
2019-05-28 06:00:00 13.9 10 Oeste 18 Noroeste 0 -- -- 65
2019-05-28 05:00:00 14.2 9 Noroeste 16 Noroeste 0 -- -- 54
2019-05-28 04:00:00 12.9 9 Noroeste 17 Oeste 0 -- -- 58
2019-05-28 03:00:00 13 12 Noroeste 17 Oeste 0 -- -- 61
2019-05-28 02:00:00 14.9 5 Norte 19 Norte 0 -- -- 52
2019-05-28 01:00:00 14.6 7 Sudoeste 30 Noroeste 0 -- -- 54
2019-05-28 00:00:00 14.3 15 Noroeste 29 Noroeste 0 -- -- 49
2019-05-27 23:00:00 14 15 Noroeste 30 Noroeste 0 -- -- 51
2019-05-27 22:00:00 13.9 14 Noroeste 29 Noroeste 0 -- -- 54
2019-05-27 21:00:00 13.7 13 Noroeste 30 Noroeste 0 -- -- 59
2019-05-27 20:00:00 16.2 8 Oeste 33 Norte 0 -- -- 53
2019-05-27 19:00:00 17.4 14 Nordeste 30 Nordeste 0 -- -- 44
2019-05-27 18:00:00 18.2 15 Norte 31 Nordeste 0 -- -- 45
2019-05-27 17:00:00 19.1 10 Norte 33 Oeste 0 -- -- 42
2019-05-27 16:00:00 18.6 19 Noroeste 31 Noroeste 0 -- -- 45
2019-05-27 15:00:00 18.9 17 Noroeste 28 Noroeste 0 -- -- 48
2019-05-27 14:00:00 21.3 10 Norte 26 Nordeste 0 -- -- 39
2019-05-27 13:00:00 20.3 10 Nordeste 23 Este 0 -- -- 37
2019-05-27 12:00:00 20.3 14 Este 28 Este 0 -- -- 36
2019-05-27 11:00:00 19.8 16 Este 33 Este 0 -- -- 38
2019-05-27 10:00:00 18.6 19 Sudeste 37 Este 0 -- -- 40
2019-05-27 09:00:00 17.8 15 Este 30 Este 0 -- -- 46
2019-05-27 08:00:00 15.8 13 Sudeste 18 Sudeste 0 -- -- 53
2019-05-27 07:00:00 12 11 Oeste 20 Oeste 0 -- -- 62
2019-05-27 06:00:00 12.3 13 Noroeste 21 Noroeste 0 -- -- 62
2019-05-27 05:00:00 12.5 14 Noroeste 23 Noroeste 0 -- -- 63
2019-05-27 04:00:00 12.9 7 Noroeste 15 Noroeste 0 -- -- 62
2019-05-27 03:00:00 12.5 3 Sudeste 14 Sudeste 0 -- -- 72
2019-05-27 02:00:00 15.4 12 Sudeste 19 Este 0 -- -- 46
2019-05-27 01:00:00 15.6 12 Sudeste 19 Sudeste 0 -- -- 46
2019-05-27 00:00:00 14.5 11 Sudeste 14 Sudeste 0 -- -- 47
2019-05-26 23:00:00 9 5 Oeste 15 Norte 0 -- -- 100
2019-05-26 22:00:00 10.3 10 Noroeste 17 Noroeste 0 -- -- 100
2019-05-26 21:00:00 11 10 Noroeste 15 Noroeste 0 -- -- 95
2019-05-26 20:00:00 14.9 8 Noroeste 19 Noroeste 0 -- -- 63
2019-05-26 19:00:00 15.9 10 Noroeste 26 Oeste 0 -- -- 58
2019-05-26 18:00:00 14.8 18 Noroeste 29 Noroeste 0 -- -- 73
2019-05-26 17:00:00 14 21 Noroeste 30 Noroeste 0 -- -- 85
2019-05-26 16:00:00 18.9 9 Noroeste 24 Oeste 0 -- -- 55
2019-05-26 15:00:00 18.9 8 Norte 21 Noroeste 0 -- -- 54
2019-05-26 14:00:00 16.5 11 Noroeste 19 Noroeste 0 -- -- 72
2019-05-26 13:00:00 15.3 12 Noroeste 19 Noroeste 0 -- -- 85
2019-05-26 12:00:00 16.4 10 Noroeste 20 Noroeste 0 -- -- 78
2019-05-26 11:00:00 15.4 12 Noroeste 19 Este 0 -- -- 84
2019-05-26 10:00:00 16.3 13 Este 21 Este 0 -- -- 85
2019-05-26 09:00:00 11.3 13 Noroeste 31 Norte 0 -- -- 100
2019-05-26 08:00:00 11.1 17 Noroeste 29 Noroeste 0 -- -- 100
2019-05-26 07:00:00 10.3 18 Noroeste 30 Noroeste 0 -- -- 100
2019-05-26 06:00:00 10.1 18 Noroeste 31 Noroeste 0 -- -- 100
2019-05-26 05:00:00 10.3 21 Noroeste 39 Noroeste 0 -- -- 100
2019-05-26 04:00:00 10.3 26 Noroeste 39 Noroeste 0 -- -- 100
2019-05-26 03:00:00 10.3 26 Noroeste 37 Oeste 0 -- -- 100
2019-05-26 02:00:00 10.7 17 Noroeste 37 Noroeste 0 -- -- 100
2019-05-26 01:00:00 10.5 28 Noroeste 40 Noroeste 0 -- -- 100
2019-05-26 00:00:00 10.8 10 Sudoeste 39 Noroeste 0 -- -- 100